sensor_id;sensor_type;location;lat;lon;timestamp;pressure;altitude;pressure_sealevel;temperature
80581;BMP180;1474;51.460;7.150;2023-05-28T00:00:13;100994.00;;;11.30
80581;BMP180;1474;51.460;7.150;2023-05-28T00:02:39;101000.00;;;11.20
80581;BMP180;1474;51.460;7.150;2023-05-28T00:05:06;100988.00;;;11.20
80581;BMP180;1474;51.460;7.150;2023-05-28T00:07:32;100982.00;;;11.10
80581;BMP180;1474;51.460;7.150;2023-05-28T00:09:58;100983.00;;;11.00
80581;BMP180;1474;51.460;7.150;2023-05-28T00:12:24;100985.00;;;11.10
80581;BMP180;1474;51.460;7.150;2023-05-28T00:14:51;100985.00;;;11.00
80581;BMP180;1474;51.460;7.150;2023-05-28T00:17:17;100982.00;;;11.00
80581;BMP180;1474;51.460;7.150;2023-05-28T00:19:44;100982.00;;;11.00
80581;BMP180;1474;51.460;7.150;2023-05-28T00:22:10;100981.00;;;10.90
80581;BMP180;1474;51.460;7.150;2023-05-28T00:24:36;100976.00;;;10.90
80581;BMP180;1474;51.460;7.150;2023-05-28T00:27:02;100985.00;;;10.80
80581;BMP180;1474;51.460;7.150;2023-05-28T00:29:29;100983.00;;;10.70
80581;BMP180;1474;51.460;7.150;2023-05-28T00:31:56;100982.00;;;10.70
80581;BMP180;1474;51.460;7.150;2023-05-28T00:34:23;100974.00;;;10.70
80581;BMP180;1474;51.460;7.150;2023-05-28T00:36:48;100971.00;;;10.70
80581;BMP180;1474;51.460;7.150;2023-05-28T00:39:16;100967.00;;;10.60
80581;BMP180;1474;51.460;7.150;2023-05-28T00:41:42;100970.00;;;10.70
80581;BMP180;1474;51.460;7.150;2023-05-28T00:44:08;100972.00;;;10.60
80581;BMP180;1474;51.460;7.150;2023-05-28T00:46:43;100962.00;;;10.60
80581;BMP180;1474;51.460;7.150;2023-05-28T00:49:10;100965.00;;;10.60
80581;BMP180;1474;51.460;7.150;2023-05-28T00:51:38;100969.00;;;10.50
80581;BMP180;1474;51.460;7.150;2023-05-28T00:54:05;100970.00;;;10.50
80581;BMP180;1474;51.460;7.150;2023-05-28T00:56:31;100973.00;;;10.40
80581;BMP180;1474;51.460;7.150;2023-05-28T00:59:01;100961.00;;;10.40
80581;BMP180;1474;51.460;7.150;2023-05-28T01:01:27;100962.00;;;10.40
80581;BMP180;1474;51.460;7.150;2023-05-28T01:03:54;100961.00;;;10.40
80581;BMP180;1474;51.460;7.150;2023-05-28T01:06:21;100964.00;;;10.40
80581;BMP180;1474;51.460;7.150;2023-05-28T01:08:49;100964.00;;;10.30
80581;BMP180;1474;51.460;7.150;2023-05-28T01:11:19;100966.00;;;10.20
80581;BMP180;1474;51.460;7.150;2023-05-28T01:13:46;100969.00;;;10.30
80581;BMP180;1474;51.460;7.150;2023-05-28T01:16:13;100966.00;;;10.20
80581;BMP180;1474;51.460;7.150;2023-05-28T01:18:40;100967.00;;;10.20
80581;BMP180;1474;51.460;7.150;2023-05-28T01:21:10;100957.00;;;10.10
80581;BMP180;1474;51.460;7.150;2023-05-28T01:23:44;100964.00;;;9.90
80581;BMP180;1474;51.460;7.150;2023-05-28T01:26:15;100967.00;;;9.80
80581;BMP180;1474;51.460;7.150;2023-05-28T01:28:46;100967.00;;;9.70
80581;BMP180;1474;51.460;7.150;2023-05-28T01:31:13;100966.00;;;9.90
80581;BMP180;1474;51.460;7.150;2023-05-28T01:33:40;100959.00;;;9.90
80581;BMP180;1474;51.460;7.150;2023-05-28T01:36:16;100954.00;;;10.00
80581;BMP180;1474;51.460;7.150;2023-05-28T01:38:47;100951.00;;;10.00
80581;BMP180;1474;51.460;7.150;2023-05-28T01:41:15;100949.00;;;10.00
80581;BMP180;1474;51.460;7.150;2023-05-28T01:43:42;100945.00;;;10.00
80581;BMP180;1474;51.460;7.150;2023-05-28T01:46:09;100945.00;;;9.80
80581;BMP180;1474;51.460;7.150;2023-05-28T01:48:36;100946.00;;;9.60
80581;BMP180;1474;51.460;7.150;2023-05-28T01:51:02;100941.00;;;9.60
80581;BMP180;1474;51.460;7.150;2023-05-28T01:53:28;100941.00;;;9.70
80581;BMP180;1474;51.460;7.150;2023-05-28T01:55:54;100931.00;;;9.70
80581;BMP180;1474;51.460;7.150;2023-05-28T01:58:23;100937.00;;;9.70
80581;BMP180;1474;51.460;7.150;2023-05-28T02:01:09;100927.00;;;9.70
80581;BMP180;1474;51.460;7.150;2023-05-28T02:03:36;100933.00;;;9.70
80581;BMP180;1474;51.460;7.150;2023-05-28T02:06:02;100935.00;;;9.70
80581;BMP180;1474;51.460;7.150;2023-05-28T02:08:28;100932.00;;;9.70
80581;BMP180;1474;51.460;7.150;2023-05-28T02:10:54;100929.00;;;9.70
80581;BMP180;1474;51.460;7.150;2023-05-28T02:13:20;100933.00;;;9.60
80581;BMP180;1474;51.460;7.150;2023-05-28T02:15:46;100933.00;;;9.60
80581;BMP180;1474;51.460;7.150;2023-05-28T02:18:11;100926.00;;;9.60
80581;BMP180;1474;51.460;7.150;2023-05-28T02:20:37;100923.00;;;9.50
80581;BMP180;1474;51.460;7.150;2023-05-28T02:23:03;100920.00;;;9.50
80581;BMP180;1474;51.460;7.150;2023-05-28T02:25:29;100917.00;;;9.50
80581;BMP180;1474;51.460;7.150;2023-05-28T02:27:54;100921.00;;;9.40
80581;BMP180;1474;51.460;7.150;2023-05-28T02:30:20;100920.00;;;9.40
80581;BMP180;1474;51.460;7.150;2023-05-28T02:32:46;100924.00;;;9.40
80581;BMP180;1474;51.460;7.150;2023-05-28T02:35:12;100920.00;;;9.50
80581;BMP180;1474;51.460;7.150;2023-05-28T02:37:38;100933.00;;;9.40
80581;BMP180;1474;51.460;7.150;2023-05-28T02:40:04;100930.00;;;9.40
80581;BMP180;1474;51.460;7.150;2023-05-28T02:42:31;100932.00;;;9.40
80581;BMP180;1474;51.460;7.150;2023-05-28T02:44:56;100933.00;;;9.30
80581;BMP180;1474;51.460;7.150;2023-05-28T02:47:22;100923.00;;;9.20
80581;BMP180;1474;51.460;7.150;2023-05-28T02:49:51;100922.00;;;9.20
80581;BMP180;1474;51.460;7.150;2023-05-28T02:52:16;100923.00;;;9.20
80581;BMP180;1474;51.460;7.150;2023-05-28T02:54:42;100922.00;;;9.20
80581;BMP180;1474;51.460;7.150;2023-05-28T02:57:08;100915.00;;;9.20
80581;BMP180;1474;51.460;7.150;2023-05-28T02:59:34;100908.00;;;9.10
80581;BMP180;1474;51.460;7.150;2023-05-28T03:01:59;100911.00;;;9.00
80581;BMP180;1474;51.460;7.150;2023-05-28T03:04:25;100905.00;;;8.90
80581;BMP180;1474;51.460;7.150;2023-05-28T03:06:52;100912.00;;;8.80
80581;BMP180;1474;51.460;7.150;2023-05-28T03:09:17;100921.00;;;8.90
80581;BMP180;1474;51.460;7.150;2023-05-28T03:11:43;100919.00;;;9.00
80581;BMP180;1474;51.460;7.150;2023-05-28T03:14:09;100916.00;;;9.00
80581;BMP180;1474;51.460;7.150;2023-05-28T03:16:34;100918.00;;;9.00
80581;BMP180;1474;51.460;7.150;2023-05-28T03:19:02;100931.00;;;9.00
80581;BMP180;1474;51.460;7.150;2023-05-28T03:21:28;100926.00;;;9.00
80581;BMP180;1474;51.460;7.150;2023-05-28T03:23:54;100933.00;;;8.90
80581;BMP180;1474;51.460;7.150;2023-05-28T03:26:19;100930.00;;;8.90
80581;BMP180;1474;51.460;7.150;2023-05-28T03:28:47;100931.00;;;8.90
80581;BMP180;1474;51.460;7.150;2023-05-28T03:31:12;100930.00;;;8.80
80581;BMP180;1474;51.460;7.150;2023-05-28T03:33:38;100935.00;;;9.00
80581;BMP180;1474;51.460;7.150;2023-05-28T03:36:04;100935.00;;;9.00
80581;BMP180;1474;51.460;7.150;2023-05-28T03:38:33;100932.00;;;8.90
80581;BMP180;1474;51.460;7.150;2023-05-28T03:40:59;100929.00;;;8.90
80581;BMP180;1474;51.460;7.150;2023-05-28T03:43:25;100922.00;;;8.90
80581;BMP180;1474;51.460;7.150;2023-05-28T03:45:51;100918.00;;;8.90
80581;BMP180;1474;51.460;7.150;2023-05-28T03:48:16;100920.00;;;9.00
80581;BMP180;1474;51.460;7.150;2023-05-28T03:50:42;100914.00;;;9.10
80581;BMP180;1474;51.460;7.150;2023-05-28T03:53:08;100918.00;;;9.10
80581;BMP180;1474;51.460;7.150;2023-05-28T03:55:33;100921.00;;;9.20
80581;BMP180;1474;51.460;7.150;2023-05-28T03:58:01;100934.00;;;9.00
80581;BMP180;1474;51.460;7.150;2023-05-28T04:00:27;100926.00;;;9.20
80581;BMP180;1474;51.460;7.150;2023-05-28T04:02:54;100928.00;;;9.10
80581;BMP180;1474;51.460;7.150;2023-05-28T04:05:20;100929.00;;;9.30
80581;BMP180;1474;51.460;7.150;2023-05-28T04:07:45;100926.00;;;9.30
80581;BMP180;1474;51.460;7.150;2023-05-28T04:10:11;100929.00;;;9.40
80581;BMP180;1474;51.460;7.150;2023-05-28T04:12:37;100920.00;;;9.40
80581;BMP180;1474;51.460;7.150;2023-05-28T04:15:03;100913.00;;;9.50
80581;BMP180;1474;51.460;7.150;2023-05-28T04:17:29;100922.00;;;9.50
80581;BMP180;1474;51.460;7.150;2023-05-28T04:19:55;100929.00;;;9.50
80581;BMP180;1474;51.460;7.150;2023-05-28T04:22:21;100930.00;;;9.60
80581;BMP180;1474;51.460;7.150;2023-05-28T04:24:52;100934.00;;;9.70
80581;BMP180;1474;51.460;7.150;2023-05-28T04:27:21;100927.00;;;9.80
80581;BMP180;1474;51.460;7.150;2023-05-28T04:29:46;100933.00;;;9.80
80581;BMP180;1474;51.460;7.150;2023-05-28T04:32:13;100926.00;;;10.00
80581;BMP180;1474;51.460;7.150;2023-05-28T04:34:39;100928.00;;;9.90
80581;BMP180;1474;51.460;7.150;2023-05-28T04:37:08;100924.00;;;10.10
80581;BMP180;1474;51.460;7.150;2023-05-28T04:39:34;100941.00;;;10.30
80581;BMP180;1474;51.460;7.150;2023-05-28T04:42:00;100931.00;;;10.40
80581;BMP180;1474;51.460;7.150;2023-05-28T04:44:29;100932.00;;;10.40
80581;BMP180;1474;51.460;7.150;2023-05-28T04:46:55;100923.00;;;10.40
80581;BMP180;1474;51.460;7.150;2023-05-28T04:49:25;100877.00;;;10.80
80581;BMP180;1474;51.460;7.150;2023-05-28T04:51:51;100910.00;;;13.40
80581;BMP180;1474;51.460;7.150;2023-05-28T04:54:17;100922.00;;;12.80
80581;BMP180;1474;51.460;7.150;2023-05-28T04:56:43;100892.00;;;13.60
80581;BMP180;1474;51.460;7.150;2023-05-28T04:59:09;100847.00;;;14.30
80581;BMP180;1474;51.460;7.150;2023-05-28T05:01:36;100787.00;;;17.70
80581;BMP180;1474;51.460;7.150;2023-05-28T05:04:05;100778.00;;;19.70
80581;BMP180;1474;51.460;7.150;2023-05-28T05:06:31;100777.00;;;20.40
80581;BMP180;1474;51.460;7.150;2023-05-28T05:08:57;100757.00;;;19.90
80581;BMP180;1474;51.460;7.150;2023-05-28T05:11:22;100770.00;;;18.90
80581;BMP180;1474;51.460;7.150;2023-05-28T05:13:48;100769.00;;;20.00
80581;BMP180;1474;51.460;7.150;2023-05-28T05:16:14;100758.00;;;19.70
80581;BMP180;1474;51.460;7.150;2023-05-28T05:18:40;100758.00;;;19.60
80581;BMP180;1474;51.460;7.150;2023-05-28T05:21:05;100759.00;;;20.70
80581;BMP180;1474;51.460;7.150;2023-05-28T05:23:32;100766.00;;;22.70
80581;BMP180;1474;51.460;7.150;2023-05-28T05:25:57;100766.00;;;21.40
80581;BMP180;1474;51.460;7.150;2023-05-28T05:28:23;100771.00;;;22.80
80581;BMP180;1474;51.460;7.150;2023-05-28T05:30:49;100772.00;;;22.40
80581;BMP180;1474;51.460;7.150;2023-05-28T05:33:15;100750.00;;;20.70
80581;BMP180;1474;51.460;7.150;2023-05-28T05:35:41;100775.00;;;23.80
80581;BMP180;1474;51.460;7.150;2023-05-28T05:38:06;100784.00;;;21.40
80581;BMP180;1474;51.460;7.150;2023-05-28T05:40:32;100796.00;;;23.30
80581;BMP180;1474;51.460;7.150;2023-05-28T05:42:58;100837.00;;;24.40
80581;BMP180;1474;51.460;7.150;2023-05-28T05:45:24;100848.00;;;22.80
80581;BMP180;1474;51.460;7.150;2023-05-28T05:47:49;100900.00;;;22.10
80581;BMP180;1474;51.460;7.150;2023-05-28T05:50:16;100964.00;;;19.50
80581;BMP180;1474;51.460;7.150;2023-05-28T05:52:41;100960.00;;;16.40
80581;BMP180;1474;51.460;7.150;2023-05-28T05:55:10;100966.00;;;16.50
80581;BMP180;1474;51.460;7.150;2023-05-28T05:57:36;100973.00;;;15.80
80581;BMP180;1474;51.460;7.150;2023-05-28T06:00:06;100966.00;;;15.70
80581;BMP180;1474;51.460;7.150;2023-05-28T06:02:34;100984.00;;;16.70
80581;BMP180;1474;51.460;7.150;2023-05-28T06:05:02;100991.00;;;16.00
80581;BMP180;1474;51.460;7.150;2023-05-28T06:07:29;100978.00;;;15.40
80581;BMP180;1474;51.460;7.150;2023-05-28T06:09:55;100983.00;;;16.00
80581;BMP180;1474;51.460;7.150;2023-05-28T06:12:21;100978.00;;;16.00
80581;BMP180;1474;51.460;7.150;2023-05-28T06:14:46;100980.00;;;15.90
80581;BMP180;1474;51.460;7.150;2023-05-28T06:17:12;100968.00;;;16.20
80581;BMP180;1474;51.460;7.150;2023-05-28T06:19:39;100968.00;;;16.30
80581;BMP180;1474;51.460;7.150;2023-05-28T06:22:05;100974.00;;;15.40
80581;BMP180;1474;51.460;7.150;2023-05-28T06:24:30;100973.00;;;16.00
80581;BMP180;1474;51.460;7.150;2023-05-28T06:26:57;100972.00;;;16.00
80581;BMP180;1474;51.460;7.150;2023-05-28T06:29:23;100981.00;;;16.30
80581;BMP180;1474;51.460;7.150;2023-05-28T06:31:49;100979.00;;;15.40
80581;BMP180;1474;51.460;7.150;2023-05-28T06:34:14;100977.00;;;16.30
80581;BMP180;1474;51.460;7.150;2023-05-28T06:36:40;100975.00;;;16.80
80581;BMP180;1474;51.460;7.150;2023-05-28T06:39:07;100971.00;;;17.10
80581;BMP180;1474;51.460;7.150;2023-05-28T06:41:32;100974.00;;;16.60
80581;BMP180;1474;51.460;7.150;2023-05-28T06:44:00;100967.00;;;16.50
80581;BMP180;1474;51.460;7.150;2023-05-28T06:46:26;100982.00;;;17.10
80581;BMP180;1474;51.460;7.150;2023-05-28T06:48:54;100983.00;;;16.40
80581;BMP180;1474;51.460;7.150;2023-05-28T06:51:20;100995.00;;;16.00
80581;BMP180;1474;51.460;7.150;2023-05-28T06:53:46;100991.00;;;16.60
80581;BMP180;1474;51.460;7.150;2023-05-28T06:56:12;100989.00;;;17.00
80581;BMP180;1474;51.460;7.150;2023-05-28T06:58:38;100987.00;;;16.90
80581;BMP180;1474;51.460;7.150;2023-05-28T07:01:03;100992.00;;;17.10
80581;BMP180;1474;51.460;7.150;2023-05-28T07:03:30;100996.00;;;17.40
80581;BMP180;1474;51.460;7.150;2023-05-28T07:05:56;100991.00;;;17.20
80581;BMP180;1474;51.460;7.150;2023-05-28T07:08:22;100987.00;;;17.30
80581;BMP180;1474;51.460;7.150;2023-05-28T07:10:47;100991.00;;;17.80
80581;BMP180;1474;51.460;7.150;2023-05-28T07:13:13;101008.00;;;17.90
80581;BMP180;1474;51.460;7.150;2023-05-28T07:15:39;100997.00;;;17.60
80581;BMP180;1474;51.460;7.150;2023-05-28T07:18:05;100998.00;;;18.10
80581;BMP180;1474;51.460;7.150;2023-05-28T07:20:31;101003.00;;;18.50
80581;BMP180;1474;51.460;7.150;2023-05-28T07:22:57;101006.00;;;18.60
80581;BMP180;1474;51.460;7.150;2023-05-28T07:25:23;101006.00;;;18.30
80581;BMP180;1474;51.460;7.150;2023-05-28T07:27:48;101004.00;;;17.70
80581;BMP180;1474;51.460;7.150;2023-05-28T07:30:14;100997.00;;;17.90
80581;BMP180;1474;51.460;7.150;2023-05-28T07:32:40;101001.00;;;18.10
80581;BMP180;1474;51.460;7.150;2023-05-28T07:35:06;101007.00;;;18.40
80581;BMP180;1474;51.460;7.150;2023-05-28T07:37:33;101007.00;;;18.10
80581;BMP180;1474;51.460;7.150;2023-05-28T07:39:58;101015.00;;;17.30
80581;BMP180;1474;51.460;7.150;2023-05-28T07:42:24;101010.00;;;18.00
80581;BMP180;1474;51.460;7.150;2023-05-28T07:44:50;101011.00;;;17.60
80581;BMP180;1474;51.460;7.150;2023-05-28T07:47:16;101001.00;;;18.10
80581;BMP180;1474;51.460;7.150;2023-05-28T07:49:41;100996.00;;;17.70
80581;BMP180;1474;51.460;7.150;2023-05-28T07:52:07;101002.00;;;17.90
80581;BMP180;1474;51.460;7.150;2023-05-28T07:54:34;101000.00;;;18.60
80581;BMP180;1474;51.460;7.150;2023-05-28T07:57:00;101007.00;;;19.40
80581;BMP180;1474;51.460;7.150;2023-05-28T07:59:26;101003.00;;;18.50
80581;BMP180;1474;51.460;7.150;2023-05-28T08:01:52;101002.00;;;19.00
80581;BMP180;1474;51.460;7.150;2023-05-28T08:04:18;100994.00;;;18.60
80581;BMP180;1474;51.460;7.150;2023-05-28T08:06:44;100996.00;;;18.80
80581;BMP180;1474;51.460;7.150;2023-05-28T08:09:10;101002.00;;;18.90
80581;BMP180;1474;51.460;7.150;2023-05-28T08:11:36;100995.00;;;19.30
80581;BMP180;1474;51.460;7.150;2023-05-28T08:14:01;101005.00;;;19.40
80581;BMP180;1474;51.460;7.150;2023-05-28T08:16:27;100999.00;;;19.20
80581;BMP180;1474;51.460;7.150;2023-05-28T08:18:53;101003.00;;;18.90
80581;BMP180;1474;51.460;7.150;2023-05-28T08:21:19;100998.00;;;19.00
80581;BMP180;1474;51.460;7.150;2023-05-28T08:23:45;100999.00;;;18.90
80581;BMP180;1474;51.460;7.150;2023-05-28T08:26:10;100977.00;;;18.60
80581;BMP180;1474;51.460;7.150;2023-05-28T08:28:36;100988.00;;;18.90
80581;BMP180;1474;51.460;7.150;2023-05-28T08:31:02;100986.00;;;19.50
80581;BMP180;1474;51.460;7.150;2023-05-28T08:33:28;100984.00;;;19.50
80581;BMP180;1474;51.460;7.150;2023-05-28T08:35:54;100969.00;;;20.20
80581;BMP180;1474;51.460;7.150;2023-05-28T08:38:19;100984.00;;;20.10
80581;BMP180;1474;51.460;7.150;2023-05-28T08:40:53;100972.00;;;19.70
80581;BMP180;1474;51.460;7.150;2023-05-28T08:43:19;100961.00;;;19.90
80581;BMP180;1474;51.460;7.150;2023-05-28T08:45:54;100961.00;;;20.80
80581;BMP180;1474;51.460;7.150;2023-05-28T08:48:22;100979.00;;;21.80
80581;BMP180;1474;51.460;7.150;2023-05-28T08:50:50;100960.00;;;21.30
80581;BMP180;1474;51.460;7.150;2023-05-28T08:53:21;100960.00;;;20.40
80581;BMP180;1474;51.460;7.150;2023-05-28T08:55:48;100953.00;;;20.60
80581;BMP180;1474;51.460;7.150;2023-05-28T08:58:16;100956.00;;;20.20
80581;BMP180;1474;51.460;7.150;2023-05-28T09:00:42;100943.00;;;20.50
80581;BMP180;1474;51.460;7.150;2023-05-28T09:03:08;100946.00;;;21.60
80581;BMP180;1474;51.460;7.150;2023-05-28T09:05:37;100943.00;;;20.90
80581;BMP180;1474;51.460;7.150;2023-05-28T09:08:09;100934.00;;;21.10
80581;BMP180;1474;51.460;7.150;2023-05-28T09:10:39;100933.00;;;22.50
80581;BMP180;1474;51.460;7.150;2023-05-28T09:13:06;100937.00;;;21.50
80581;BMP180;1474;51.460;7.150;2023-05-28T09:15:34;100933.00;;;21.40
80581;BMP180;1474;51.460;7.150;2023-05-28T09:18:06;100940.00;;;22.20
80581;BMP180;1474;51.460;7.150;2023-05-28T09:20:32;100935.00;;;21.00
80581;BMP180;1474;51.460;7.150;2023-05-28T09:23:03;100933.00;;;22.00
80581;BMP180;1474;51.460;7.150;2023-05-28T09:25:38;100942.00;;;21.90
80581;BMP180;1474;51.460;7.150;2023-05-28T09:28:04;100931.00;;;22.10
80581;BMP180;1474;51.460;7.150;2023-05-28T09:30:35;100939.00;;;21.40
80581;BMP180;1474;51.460;7.150;2023-05-28T09:33:06;100929.00;;;21.40
80581;BMP180;1474;51.460;7.150;2023-05-28T09:35:34;100927.00;;;21.50
80581;BMP180;1474;51.460;7.150;2023-05-28T09:40:30;100941.00;;;21.80
80581;BMP180;1474;51.460;7.150;2023-05-28T09:42:56;100934.00;;;22.20
80581;BMP180;1474;51.460;7.150;2023-05-28T09:45:24;100935.00;;;23.50
80581;BMP180;1474;51.460;7.150;2023-05-28T09:47:51;100937.00;;;22.50
80581;BMP180;1474;51.460;7.150;2023-05-28T09:50:17;100924.00;;;22.90
80581;BMP180;1474;51.460;7.150;2023-05-28T09:52:45;100934.00;;;22.00
80581;BMP180;1474;51.460;7.150;2023-05-28T09:55:17;100918.00;;;22.60
80581;BMP180;1474;51.460;7.150;2023-05-28T09:58:04;100925.00;;;22.90
80581;BMP180;1474;51.460;7.150;2023-05-28T10:00:48;100926.00;;;22.20
80581;BMP180;1474;51.460;7.150;2023-05-28T10:03:48;100926.00;;;23.10
80581;BMP180;1474;51.460;7.150;2023-05-28T10:06:31;100925.00;;;23.40
80581;BMP180;1474;51.460;7.150;2023-05-28T10:09:00;100926.00;;;23.20
80581;BMP180;1474;51.460;7.150;2023-05-28T10:11:30;100937.00;;;23.00
80581;BMP180;1474;51.460;7.150;2023-05-28T10:13:57;100919.00;;;22.70
80581;BMP180;1474;51.460;7.150;2023-05-28T10:16:24;100921.00;;;23.00
80581;BMP180;1474;51.460;7.150;2023-05-28T10:18:53;100925.00;;;24.60
80581;BMP180;1474;51.460;7.150;2023-05-28T10:21:19;100922.00;;;23.40
80581;BMP180;1474;51.460;7.150;2023-05-28T10:23:46;100926.00;;;23.70
80581;BMP180;1474;51.460;7.150;2023-05-28T10:26:14;100929.00;;;23.80
80581;BMP180;1474;51.460;7.150;2023-05-28T10:28:41;100926.00;;;23.20
80581;BMP180;1474;51.460;7.150;2023-05-28T10:31:08;100926.00;;;23.20
80581;BMP180;1474;51.460;7.150;2023-05-28T10:33:43;100922.00;;;23.80
80581;BMP180;1474;51.460;7.150;2023-05-28T10:36:11;100923.00;;;24.00
80581;BMP180;1474;51.460;7.150;2023-05-28T10:41:20;100936.00;;;22.20
80581;BMP180;1474;51.460;7.150;2023-05-28T10:43:53;100931.00;;;23.80
80581;BMP180;1474;51.460;7.150;2023-05-28T10:49:15;100932.00;;;23.20
80581;BMP180;1474;51.460;7.150;2023-05-28T10:51:57;100934.00;;;22.80
80581;BMP180;1474;51.460;7.150;2023-05-28T10:57:22;100954.00;;;23.10
80581;BMP180;1474;51.460;7.150;2023-05-28T10:59:58;100947.00;;;22.50
80581;BMP180;1474;51.460;7.150;2023-05-28T11:02:34;100938.00;;;22.70
80581;BMP180;1474;51.460;7.150;2023-05-28T11:05:02;100936.00;;;22.90
80581;BMP180;1474;51.460;7.150;2023-05-28T11:07:36;100932.00;;;24.10
80581;BMP180;1474;51.460;7.150;2023-05-28T11:10:11;100930.00;;;23.50
80581;BMP180;1474;51.460;7.150;2023-05-28T11:12:43;100908.00;;;23.60
80581;BMP180;1474;51.460;7.150;2023-05-28T11:15:11;100914.00;;;23.20
80581;BMP180;1474;51.460;7.150;2023-05-28T11:17:39;100916.00;;;23.60
80581;BMP180;1474;51.460;7.150;2023-05-28T11:20:18;100910.00;;;24.20
80581;BMP180;1474;51.460;7.150;2023-05-28T11:22:44;100910.00;;;23.10
80581;BMP180;1474;51.460;7.150;2023-05-28T11:25:11;100923.00;;;24.30
80581;BMP180;1474;51.460;7.150;2023-05-28T11:27:38;100937.00;;;23.40
80581;BMP180;1474;51.460;7.150;2023-05-28T11:30:14;100931.00;;;23.90
80581;BMP180;1474;51.460;7.150;2023-05-28T11:32:41;100935.00;;;23.40
80581;BMP180;1474;51.460;7.150;2023-05-28T11:35:13;100921.00;;;22.90
80581;BMP180;1474;51.460;7.150;2023-05-28T11:37:42;100920.00;;;23.30
80581;BMP180;1474;51.460;7.150;2023-05-28T11:40:10;100927.00;;;23.90
80581;BMP180;1474;51.460;7.150;2023-05-28T11:42:38;100920.00;;;23.50
80581;BMP180;1474;51.460;7.150;2023-05-28T11:45:09;100922.00;;;22.90
80581;BMP180;1474;51.460;7.150;2023-05-28T11:47:36;100918.00;;;23.20
80581;BMP180;1474;51.460;7.150;2023-05-28T11:50:12;100926.00;;;23.00
80581;BMP180;1474;51.460;7.150;2023-05-28T11:52:38;100926.00;;;23.90
80581;BMP180;1474;51.460;7.150;2023-05-28T11:55:05;100929.00;;;23.60
80581;BMP180;1474;51.460;7.150;2023-05-28T11:57:33;100920.00;;;24.20
80581;BMP180;1474;51.460;7.150;2023-05-28T12:00:04;100914.00;;;25.10
80581;BMP180;1474;51.460;7.150;2023-05-28T12:02:46;100917.00;;;24.00
80581;BMP180;1474;51.460;7.150;2023-05-28T12:05:13;100929.00;;;24.50
80581;BMP180;1474;51.460;7.150;2023-05-28T12:10:13;100928.00;;;24.70
80581;BMP180;1474;51.460;7.150;2023-05-28T12:12:42;100908.00;;;23.80
80581;BMP180;1474;51.460;7.150;2023-05-28T12:15:09;100916.00;;;24.60
80581;BMP180;1474;51.460;7.150;2023-05-28T12:17:37;100948.00;;;24.70
80581;BMP180;1474;51.460;7.150;2023-05-28T12:20:05;100909.00;;;25.00
80581;BMP180;1474;51.460;7.150;2023-05-28T12:22:32;100926.00;;;25.00
80581;BMP180;1474;51.460;7.150;2023-05-28T12:24:58;100910.00;;;23.50
80581;BMP180;1474;51.460;7.150;2023-05-28T12:27:24;100906.00;;;24.70
80581;BMP180;1474;51.460;7.150;2023-05-28T12:29:50;100966.00;;;25.30
80581;BMP180;1474;51.460;7.150;2023-05-28T12:32:15;100956.00;;;24.00
80581;BMP180;1474;51.460;7.150;2023-05-28T12:34:41;100928.00;;;23.70
80581;BMP180;1474;51.460;7.150;2023-05-28T12:37:08;100916.00;;;23.80
80581;BMP180;1474;51.460;7.150;2023-05-28T12:39:34;100962.00;;;23.60
80581;BMP180;1474;51.460;7.150;2023-05-28T12:42:02;100948.00;;;23.20
80581;BMP180;1474;51.460;7.150;2023-05-28T12:44:29;100944.00;;;23.10
80581;BMP180;1474;51.460;7.150;2023-05-28T12:46:55;100952.00;;;23.20
80581;BMP180;1474;51.460;7.150;2023-05-28T12:49:20;100929.00;;;23.00
80581;BMP180;1474;51.460;7.150;2023-05-28T12:51:46;100933.00;;;23.00
80581;BMP180;1474;51.460;7.150;2023-05-28T12:54:12;100935.00;;;23.10
80581;BMP180;1474;51.460;7.150;2023-05-28T12:56:38;100925.00;;;23.70
80581;BMP180;1474;51.460;7.150;2023-05-28T12:59:04;100927.00;;;23.60
80581;BMP180;1474;51.460;7.150;2023-05-28T13:01:30;100929.00;;;23.10
80581;BMP180;1474;51.460;7.150;2023-05-28T13:03:56;100915.00;;;23.60
80581;BMP180;1474;51.460;7.150;2023-05-28T13:06:22;100914.00;;;23.50
80581;BMP180;1474;51.460;7.150;2023-05-28T13:08:48;100906.00;;;23.90
80581;BMP180;1474;51.460;7.150;2023-05-28T13:11:14;100906.00;;;24.60
80581;BMP180;1474;51.460;7.150;2023-05-28T13:13:39;100917.00;;;24.10
80581;BMP180;1474;51.460;7.150;2023-05-28T13:16:05;100904.00;;;23.60
80581;BMP180;1474;51.460;7.150;2023-05-28T13:18:31;100899.00;;;24.20
80581;BMP180;1474;51.460;7.150;2023-05-28T13:20:59;100905.00;;;24.10
80581;BMP180;1474;51.460;7.150;2023-05-28T13:23:25;100903.00;;;23.40
80581;BMP180;1474;51.460;7.150;2023-05-28T13:25:51;100895.00;;;24.60
80581;BMP180;1474;51.460;7.150;2023-05-28T13:28:16;100901.00;;;24.10
80581;BMP180;1474;51.460;7.150;2023-05-28T13:30:44;100888.00;;;24.40
80581;BMP180;1474;51.460;7.150;2023-05-28T13:33:10;100897.00;;;24.70
80581;BMP180;1474;51.460;7.150;2023-05-28T13:35:36;100882.00;;;23.80
80581;BMP180;1474;51.460;7.150;2023-05-28T13:38:01;100888.00;;;24.70
80581;BMP180;1474;51.460;7.150;2023-05-28T13:40:31;100889.00;;;24.00
80581;BMP180;1474;51.460;7.150;2023-05-28T13:42:58;100898.00;;;24.70
80581;BMP180;1474;51.460;7.150;2023-05-28T13:45:24;100899.00;;;24.60
80581;BMP180;1474;51.460;7.150;2023-05-28T13:47:50;100897.00;;;25.00
80581;BMP180;1474;51.460;7.150;2023-05-28T13:50:16;100893.00;;;23.80
80581;BMP180;1474;51.460;7.150;2023-05-28T13:52:43;100884.00;;;24.70
80581;BMP180;1474;51.460;7.150;2023-05-28T13:55:09;100883.00;;;25.30
80581;BMP180;1474;51.460;7.150;2023-05-28T13:57:35;100889.00;;;25.70
80581;BMP180;1474;51.460;7.150;2023-05-28T14:00:02;100891.00;;;24.00
80581;BMP180;1474;51.460;7.150;2023-05-28T14:02:32;100893.00;;;24.70
80581;BMP180;1474;51.460;7.150;2023-05-28T14:04:58;100901.00;;;24.10
80581;BMP180;1474;51.460;7.150;2023-05-28T14:07:24;100897.00;;;24.20
80581;BMP180;1474;51.460;7.150;2023-05-28T14:09:50;100883.00;;;24.40
80581;BMP180;1474;51.460;7.150;2023-05-28T14:12:16;100876.00;;;24.40
80581;BMP180;1474;51.460;7.150;2023-05-28T14:14:41;100880.00;;;24.60
80581;BMP180;1474;51.460;7.150;2023-05-28T14:17:07;100878.00;;;24.20
80581;BMP180;1474;51.460;7.150;2023-05-28T14:19:33;100870.00;;;24.20
80581;BMP180;1474;51.460;7.150;2023-05-28T14:21:58;100867.00;;;24.50
80581;BMP180;1474;51.460;7.150;2023-05-28T14:24:24;100868.00;;;24.60